createdAt,value
2018-06-29T00:00:09.457Z,19.67
2018-06-29T00:01:09.514Z,19.52
2018-06-29T00:03:02.520Z,19.56
2018-06-29T00:04:02.577Z,19.56
2018-06-29T00:05:56.077Z,19.49
2018-06-29T00:06:56.143Z,19.59
2018-06-29T00:08:49.150Z,19.48
2018-06-29T00:09:49.207Z,19.44
2018-06-29T00:11:42.210Z,19.45
2018-06-29T00:12:42.267Z,19.40
2018-06-29T00:14:35.260Z,19.37
2018-06-29T00:15:35.330Z,19.44
2018-06-29T00:17:28.327Z,19.40
2018-06-29T00:18:28.384Z,19.34
2018-06-29T00:20:21.382Z,19.37
2018-06-29T00:21:21.447Z,19.33
2018-06-29T00:23:14.452Z,19.31
2018-06-29T00:24:14.513Z,19.37
2018-06-29T00:26:07.510Z,19.33
2018-06-29T00:27:07.569Z,19.29
2018-06-29T00:29:00.574Z,19.34
2018-06-29T00:30:00.631Z,19.26
2018-06-29T00:31:53.624Z,19.21
2018-06-29T00:32:53.689Z,19.30
2018-06-29T00:34:46.691Z,19.12
2018-06-29T00:35:46.748Z,19.14
2018-06-29T00:37:39.750Z,19.14
2018-06-29T00:38:39.811Z,19.08
2018-06-29T00:40:32.802Z,19.07
2018-06-29T00:41:32.869Z,18.98
2018-06-29T00:43:25.868Z,19.00
2018-06-29T00:44:25.925Z,19.04
2018-06-29T00:46:18.927Z,19.04
2018-06-29T00:47:18.989Z,19.00
2018-06-29T00:49:11.990Z,18.92
2018-06-29T00:50:12.048Z,18.89
2018-06-29T00:52:05.049Z,18.89
2018-06-29T00:53:05.109Z,18.99
2018-06-29T00:54:58.110Z,18.92
2018-06-29T00:55:58.172Z,18.86
2018-06-29T00:57:51.176Z,18.83
2018-06-29T00:58:51.236Z,18.80
2018-06-29T01:00:44.230Z,18.88
2018-06-29T01:01:44.294Z,18.80
2018-06-29T01:03:37.294Z,18.81
2018-06-29T01:04:37.354Z,18.71
2018-06-29T01:06:30.855Z,18.78
2018-06-29T01:07:30.921Z,18.81
2018-06-29T01:09:23.921Z,18.74
2018-06-29T01:10:23.980Z,18.66
2018-06-29T01:12:16.971Z,18.65
2018-06-29T01:13:17.037Z,18.68
2018-06-29T01:15:10.039Z,18.59
2018-06-29T01:16:10.097Z,18.53
2018-06-29T01:18:03.092Z,18.59
2018-06-29T01:19:03.155Z,18.55
2018-06-29T01:20:56.157Z,18.56
2018-06-29T01:21:56.221Z,18.44
2018-06-29T01:23:49.227Z,18.55
2018-06-29T01:24:49.278Z,18.45
2018-06-29T01:26:42.271Z,18.41
2018-06-29T01:27:42.339Z,18.43
2018-06-29T01:29:35.337Z,18.40
2018-06-29T01:30:35.396Z,18.44
2018-06-29T01:32:28.392Z,18.44
2018-06-29T01:33:28.458Z,18.35
2018-06-29T01:35:21.462Z,18.31
2018-06-29T01:36:21.522Z,18.34
2018-06-29T01:38:14.520Z,18.33
2018-06-29T01:39:14.585Z,18.26
2018-06-29T01:41:07.581Z,18.26
2018-06-29T01:42:07.639Z,18.23
2018-06-29T01:44:00.640Z,18.20
2018-06-29T01:45:00.698Z,18.11
2018-06-29T01:46:53.698Z,18.10
2018-06-29T01:47:53.755Z,18.05
2018-06-29T01:49:46.757Z,18.10
2018-06-29T01:50:46.817Z,18.08
2018-06-29T01:52:39.831Z,18.10
2018-06-29T01:53:39.871Z,18.13
2018-06-29T01:55:32.874Z,17.95
2018-06-29T01:56:32.929Z,17.87
2018-06-29T01:58:25.923Z,17.82
2018-06-29T01:59:25.987Z,17.94
2018-06-29T02:01:18.987Z,17.89
2018-06-29T02:02:19.044Z,17.92
2018-06-29T02:04:12.044Z,17.86
2018-06-29T02:05:12.103Z,17.87
2018-06-29T02:07:05.106Z,17.76
2018-06-29T02:08:05.221Z,17.76
2018-06-29T02:09:58.163Z,17.76
2018-06-29T02:10:58.220Z,17.74
2018-06-29T02:12:51.215Z,17.80
2018-06-29T02:13:51.277Z,17.67
2018-06-29T02:15:44.277Z,17.67
2018-06-29T02:16:44.337Z,17.68
2018-06-29T02:18:37.328Z,17.65
2018-06-29T02:19:37.388Z,17.60
2018-06-29T02:21:30.391Z,17.57
2018-06-29T02:22:30.450Z,17.60
2018-06-29T02:24:23.440Z,17.54
2018-06-29T02:25:23.506Z,17.52
2018-06-29T02:27:16.504Z,17.59
2018-06-29T02:28:16.564Z,17.57
2018-06-29T02:30:09.561Z,17.54
2018-06-29T02:31:09.619Z,17.57
2018-06-29T02:33:02.609Z,17.46
2018-06-29T02:34:02.675Z,17.52
2018-06-29T02:35:55.674Z,17.59
2018-06-29T02:36:55.731Z,17.56
2018-06-29T02:38:48.725Z,17.64
2018-06-29T02:39:48.787Z,17.51
2018-06-29T02:41:41.786Z,17.60
2018-06-29T02:42:41.844Z,17.52
2018-06-29T02:44:34.836Z,17.54
2018-06-29T02:45:34.901Z,17.57
2018-06-29T02:47:27.898Z,17.59
2018-06-29T02:48:27.956Z,17.60
2018-06-29T02:50:20.950Z,17.51
2018-06-29T02:51:21.011Z,17.56
2018-06-29T02:53:14.012Z,17.52
2018-06-29T02:54:14.072Z,17.57
2018-06-29T02:56:07.072Z,17.54
2018-06-29T02:57:07.129Z,17.51
2018-06-29T02:59:00.125Z,17.56
2018-06-29T03:00:00.188Z,17.48
2018-06-29T03:01:53.188Z,17.54
2018-06-29T03:02:53.245Z,17.51
2018-06-29T03:04:46.237Z,17.51
2018-06-29T03:05:46.302Z,17.52
2018-06-29T03:07:39.302Z,17.38
2018-06-29T03:08:39.359Z,17.51
2018-06-29T03:10:32.350Z,17.46
2018-06-29T03:11:32.415Z,17.41
2018-06-29T03:13:25.421Z,17.45
2018-06-29T03:14:25.471Z,17.42
2018-06-29T03:16:18.473Z,17.41
2018-06-29T03:17:18.525Z,17.39
2018-06-29T03:19:11.523Z,17.42
2018-06-29T03:20:11.584Z,17.33
2018-06-29T03:22:04.582Z,17.30
2018-06-29T03:23:04.640Z,17.26
2018-06-29T03:24:57.632Z,17.31
2018-06-29T03:25:57.698Z,17.30
2018-06-29T03:27:50.696Z,17.27
2018-06-29T03:28:50.754Z,17.23
2018-06-29T03:30:43.745Z,17.24
2018-06-29T03:31:43.813Z,17.20
2018-06-29T03:33:36.810Z,17.14
2018-06-29T03:34:36.874Z,17.09
2018-06-29T03:36:29.865Z,17.05
2018-06-29T03:37:29.926Z,17.09
2018-06-29T03:39:22.925Z,17.12
2018-06-29T03:40:23.013Z,16.94
2018-06-29T03:42:15.981Z,16.96
2018-06-29T03:43:16.040Z,17.04
2018-06-29T03:45:09.037Z,17.05
2018-06-29T03:46:09.100Z,16.99
2018-06-29T03:48:02.100Z,16.99
2018-06-29T03:49:02.157Z,17.02
2018-06-29T03:50:55.148Z,16.87
2018-06-29T03:51:55.216Z,16.81
2018-06-29T03:53:48.211Z,16.87
2018-06-29T03:54:48.269Z,16.91
2018-06-29T03:56:41.270Z,16.83
2018-06-29T03:57:41.329Z,16.86
2018-06-29T03:59:34.328Z,16.79
2018-06-29T04:00:34.386Z,16.84
2018-06-29T04:02:27.378Z,16.90
2018-06-29T04:03:27.442Z,16.84
2018-06-29T04:05:20.444Z,16.89
2018-06-29T04:06:20.500Z,16.89
2018-06-29T04:08:13.500Z,16.87
2018-06-29T04:09:13.558Z,16.81
2018-06-29T04:11:06.547Z,16.93
2018-06-29T04:12:06.614Z,16.93
2018-06-29T04:13:59.612Z,16.90
2018-06-29T04:14:59.669Z,16.94
2018-06-29T04:16:52.662Z,16.89
2018-06-29T04:17:52.728Z,16.96
2018-06-29T04:19:45.724Z,16.84
2018-06-29T04:20:45.782Z,16.91
2018-06-29T04:22:38.780Z,16.89
2018-06-29T04:23:38.843Z,16.84
2018-06-29T04:25:31.845Z,16.86
2018-06-29T04:26:31.923Z,16.84
2018-06-29T04:28:24.899Z,16.83
2018-06-29T04:29:24.955Z,16.86
2018-06-29T04:31:17.953Z,16.91
2018-06-29T04:32:18.027Z,17.01
2018-06-29T04:34:11.015Z,16.99
2018-06-29T04:35:11.074Z,16.93
2018-06-29T04:37:04.069Z,16.91
2018-06-29T04:38:04.127Z,16.94
2018-06-29T04:39:57.128Z,17.11
2018-06-29T04:40:57.185Z,17.15
2018-06-29T04:42:50.201Z,17.09
2018-06-29T04:43:50.244Z,17.05
2018-06-29T04:45:43.243Z,17.22
2018-06-29T04:46:43.301Z,17.20
2018-06-29T04:48:36.296Z,17.24
2018-06-29T04:49:36.358Z,17.15
2018-06-29T04:51:29.359Z,17.24
2018-06-29T04:52:29.413Z,17.27
2018-06-29T04:54:22.416Z,17.26
2018-06-29T04:55:22.471Z,17.29
2018-06-29T04:57:15.462Z,17.29
2018-06-29T04:58:15.528Z,17.33
2018-06-29T05:00:08.525Z,17.33
2018-06-29T05:01:08.583Z,17.31
2018-06-29T05:03:01.579Z,17.44
2018-06-29T05:04:01.637Z,17.42
2018-06-29T05:05:54.640Z,17.41
2018-06-29T05:06:54.696Z,17.42
2018-06-29T05:08:47.691Z,17.45
2018-06-29T05:09:47.758Z,17.57
2018-06-29T05:11:40.769Z,17.54
2018-06-29T05:12:40.825Z,17.65
2018-06-29T05:14:33.827Z,17.56
2018-06-29T05:15:33.945Z,17.65
2018-06-29T05:17:26.890Z,17.64
2018-06-29T05:18:26.947Z,17.65
2018-06-29T05:20:19.960Z,17.72
2018-06-29T05:21:20.003Z,17.79
2018-06-29T05:23:12.993Z,17.74
2018-06-29T05:24:13.058Z,17.83
2018-06-29T05:26:06.058Z,17.89
2018-06-29T05:27:06.114Z,17.85
2018-06-29T05:28:59.108Z,17.92
2018-06-29T05:29:59.172Z,17.98
2018-06-29T05:31:52.174Z,18.00
2018-06-29T05:32:52.230Z,17.95
2018-06-29T05:34:45.229Z,17.95
2018-06-29T05:35:45.288Z,18.05
2018-06-29T05:37:38.293Z,18.01
2018-06-29T05:38:38.345Z,18.03
2018-06-29T05:40:31.346Z,18.01
2018-06-29T05:41:31.510Z,18.18
2018-06-29T05:43:24.405Z,18.28
2018-06-29T05:44:24.465Z,18.22
2018-06-29T05:46:17.476Z,18.29
2018-06-29T05:47:17.522Z,18.29
2018-06-29T05:49:10.520Z,18.44
2018-06-29T05:50:10.580Z,18.49
2018-06-29T05:52:03.583Z,18.60
2018-06-29T05:53:03.702Z,18.58
2018-06-29T05:54:56.643Z,18.63
2018-06-29T05:55:56.706Z,18.81
2018-06-29T05:57:49.706Z,18.70
2018-06-29T05:58:49.761Z,18.68
2018-06-29T06:00:42.754Z,18.84
2018-06-29T06:01:42.819Z,18.81
2018-06-29T06:03:35.816Z,19.02
2018-06-29T06:04:35.933Z,19.15
2018-06-29T06:06:28.872Z,19.12
2018-06-29T06:07:28.928Z,19.24
2018-06-29T06:09:21.926Z,19.41
2018-06-29T06:10:22.155Z,19.59
2018-06-29T06:12:14.984Z,19.91
2018-06-29T06:13:15.043Z,20.07
2018-06-29T06:15:08.035Z,20.60
2018-06-29T06:16:08.134Z,21.00
2018-06-29T06:18:01.099Z,21.70
2018-06-29T06:19:01.158Z,22.10
2018-06-29T06:20:54.151Z,23.37
2018-06-29T06:21:54.223Z,24.11
2018-06-29T06:23:47.220Z,25.75
2018-06-29T06:24:47.269Z,26.26
2018-06-29T06:26:40.267Z,26.89
2018-06-29T06:27:40.332Z,27.30
2018-06-29T06:29:33.333Z,27.75
2018-06-29T06:30:33.392Z,28.01
2018-06-29T06:32:26.400Z,28.29
2018-06-29T06:33:26.461Z,28.26
2018-06-29T06:35:19.461Z,29.05
2018-06-29T06:36:19.530Z,29.16
2018-06-29T06:38:12.544Z,29.76
2018-06-29T06:39:12.603Z,29.94
2018-06-29T06:41:05.608Z,30.57
2018-06-29T06:42:05.685Z,31.10
2018-06-29T06:43:58.698Z,31.62
2018-06-29T06:44:58.767Z,32.09
2018-06-29T06:46:51.791Z,32.52
2018-06-29T06:47:51.851Z,32.58
2018-06-29T06:49:44.861Z,32.97
2018-06-29T06:50:44.929Z,32.95
2018-06-29T06:52:37.939Z,33.50
2018-06-29T06:53:38.042Z,33.81
2018-06-29T06:55:31.031Z,33.71
2018-06-29T06:56:31.100Z,34.25
2018-06-29T06:58:24.121Z,34.06
2018-06-29T06:59:24.223Z,34.33
2018-06-29T07:01:17.203Z,33.73
2018-06-29T07:02:17.278Z,33.79
2018-06-29T07:04:10.305Z,34.43
2018-06-29T07:05:10.375Z,35.04
2018-06-29T07:07:03.394Z,35.34
2018-06-29T07:08:03.470Z,35.56
2018-06-29T07:09:56.492Z,35.93
2018-06-29T07:10:56.564Z,35.71
2018-06-29T07:12:49.693Z,36.45
2018-06-29T07:13:49.656Z,36.61
2018-06-29T07:15:42.683Z,36.99
2018-06-29T07:16:42.758Z,36.88
2018-06-29T07:18:35.780Z,36.42
2018-06-29T07:19:35.857Z,36.43
2018-06-29T07:21:28.872Z,36.62
2018-06-29T07:22:28.949Z,36.73
2018-06-29T07:24:22.023Z,36.62
2018-06-29T07:25:22.047Z,36.81
2018-06-29T07:27:15.070Z,36.98
2018-06-29T07:28:15.147Z,37.01
2018-06-29T07:30:08.270Z,37.07
2018-06-29T07:31:08.255Z,37.13
2018-06-29T07:33:01.282Z,37.59
2018-06-29T07:34:01.362Z,37.68
2018-06-29T10:30:04.089Z,29.26
2018-06-29T10:31:04.158Z,29.23
2018-06-29T10:32:57.168Z,29.26
2018-06-29T10:33:57.242Z,29.26
2018-06-29T10:35:50.254Z,29.16
2018-06-29T10:36:50.366Z,29.12
2018-06-29T10:38:43.350Z,29.07
2018-06-29T10:39:43.407Z,29.07
2018-06-29T10:41:36.428Z,29.16
2018-06-29T10:42:36.490Z,29.10
2018-06-29T10:44:29.504Z,29.24
2018-06-29T10:45:29.587Z,29.36
2018-06-29T10:47:22.580Z,29.42
2018-06-29T10:48:22.652Z,29.39
2018-06-29T10:50:15.668Z,29.22
2018-06-29T10:51:15.734Z,29.29
2018-06-29T10:53:08.746Z,28.94
2018-06-29T10:54:08.814Z,28.82
2018-06-29T10:56:01.841Z,29.08
2018-06-29T10:57:01.910Z,29.04
2018-06-29T10:58:54.920Z,29.12
2018-06-29T10:59:54.990Z,29.19
2018-06-29T11:01:48.007Z,29.22
2018-06-29T11:02:48.073Z,29.13
2018-06-29T11:04:41.088Z,29.01
2018-06-29T11:05:41.157Z,29.05
2018-06-29T11:07:34.172Z,29.32
2018-06-29T11:08:34.238Z,29.27
2018-06-29T11:10:27.251Z,29.20
2018-06-29T11:11:27.317Z,29.08
2018-06-29T11:13:20.327Z,29.07
2018-06-29T11:14:20.395Z,29.26
2018-06-29T11:16:13.419Z,29.22
2018-06-29T11:17:13.482Z,29.14
2018-06-29T11:19:06.492Z,29.29
2018-06-29T11:20:06.563Z,29.10
2018-06-29T11:21:59.578Z,29.07
2018-06-29T11:22:59.643Z,28.98
2018-06-29T11:24:52.653Z,28.86
2018-06-29T11:25:52.727Z,28.86
2018-06-29T11:27:45.738Z,28.51
2018-06-29T11:28:45.804Z,28.49
2018-06-29T11:30:38.821Z,28.62
2018-06-29T11:31:38.886Z,28.67
2018-06-29T11:33:31.898Z,28.86
2018-06-29T11:34:31.970Z,28.86
2018-06-29T11:36:24.985Z,28.81
2018-06-29T11:37:25.051Z,28.94
2018-06-29T11:39:18.059Z,28.93
2018-06-29T11:40:18.134Z,28.82
2018-06-29T11:42:11.148Z,28.70
2018-06-29T11:43:11.212Z,28.86
2018-06-29T11:45:04.221Z,28.82
2018-06-29T11:46:04.294Z,28.72
2018-06-29T11:47:57.303Z,28.81
2018-06-29T11:48:57.379Z,28.82
2018-06-29T11:50:50.385Z,28.82
2018-06-29T11:51:50.450Z,28.82
2018-06-29T11:53:43.461Z,28.84
2018-06-29T11:54:43.528Z,28.75
2018-06-29T11:56:38.055Z,28.72
2018-06-29T11:57:38.119Z,28.85
2018-06-29T11:59:31.124Z,28.79
2018-06-29T12:00:31.238Z,28.75
2018-06-29T12:02:24.210Z,28.63
2018-06-29T12:03:24.275Z,28.51
2018-06-29T12:05:17.297Z,28.52
2018-06-29T12:06:17.352Z,28.63
2018-06-29T12:08:10.366Z,28.70
2018-06-29T12:09:10.431Z,28.74
2018-06-29T12:11:03.437Z,28.76
2018-06-29T12:12:03.509Z,28.69
2018-06-29T12:13:56.522Z,28.75
2018-06-29T12:14:56.655Z,28.70
2018-06-29T12:16:49.633Z,28.76
2018-06-29T12:17:49.671Z,28.70
2018-06-29T12:19:42.681Z,28.64
2018-06-29T12:20:42.801Z,28.62
2018-06-29T12:22:35.759Z,28.69
2018-06-29T12:23:35.826Z,28.66
2018-06-29T12:25:28.853Z,28.78
2018-06-29T12:26:28.904Z,28.86
2018-06-29T12:28:21.966Z,28.88
2018-06-29T12:29:21.995Z,28.89
2018-06-29T12:31:15.001Z,28.86
2018-06-29T12:32:15.091Z,28.86
2018-06-29T12:34:08.088Z,28.84
2018-06-29T12:35:08.147Z,28.86
2018-06-29T12:37:01.158Z,28.82
2018-06-29T12:38:01.317Z,28.86
2018-06-29T12:39:54.743Z,28.94
2018-06-29T12:40:54.814Z,28.86
2018-06-29T12:42:47.822Z,28.93
2018-06-29T12:43:47.891Z,28.89
2018-06-29T12:45:41.408Z,28.88
2018-06-29T12:46:41.477Z,28.86
2018-06-29T12:48:34.486Z,28.84
2018-06-29T12:49:34.553Z,28.86
2018-06-29T12:51:27.614Z,29.01
2018-06-29T12:52:27.630Z,29.05
2018-06-29T12:54:20.642Z,29.01
2018-06-29T12:55:20.706Z,29.05
2018-06-29T12:57:13.745Z,28.82
2018-06-29T12:58:13.799Z,28.82
2018-06-29T13:00:06.825Z,28.93
2018-06-29T13:01:06.878Z,29.05
2018-06-29T13:02:59.932Z,29.02
2018-06-29T13:03:59.949Z,28.97
2018-06-29T13:05:52.954Z,29.02
2018-06-29T13:06:53.026Z,28.97
2018-06-29T13:08:46.037Z,28.97
2018-06-29T13:09:46.101Z,28.93
2018-06-29T13:11:39.122Z,28.81
2018-06-29T13:12:39.191Z,28.88
2018-06-29T13:14:32.201Z,28.88
2018-06-29T13:15:32.267Z,28.88
2018-06-29T13:17:25.276Z,28.93
2018-06-29T13:18:25.345Z,28.93
2018-06-29T13:20:18.360Z,28.86
2018-06-29T13:21:18.425Z,28.98
2018-06-29T13:23:11.441Z,29.02
2018-06-29T13:24:11.505Z,28.97
2018-06-29T13:26:04.513Z,28.98
2018-06-29T13:27:04.583Z,29.07
2018-06-29T13:28:57.597Z,29.01
2018-06-29T13:29:57.662Z,28.93
2018-06-29T13:31:50.667Z,28.81
2018-06-29T13:32:50.740Z,28.89
2018-06-29T13:34:43.754Z,28.89
2018-06-29T13:35:43.830Z,29.02
2018-06-29T13:37:36.823Z,28.91
2018-06-29T13:38:36.894Z,28.84
2018-06-29T13:40:29.907Z,28.85
2018-06-29T13:41:29.970Z,28.89
2018-06-29T13:43:22.990Z,28.96
2018-06-29T13:44:23.047Z,29.04
2018-06-29T13:46:16.060Z,28.85
2018-06-29T13:47:16.123Z,28.91
2018-06-29T13:49:09.141Z,28.82
2018-06-29T13:50:09.203Z,28.88
2018-06-29T13:52:02.225Z,28.84
2018-06-29T13:53:02.291Z,29.05
2018-06-29T13:54:55.332Z,29.02
2018-06-29T13:55:55.375Z,29.02
2018-06-29T13:57:48.415Z,29.07
2018-06-29T13:58:48.474Z,29.05
2018-06-29T14:00:41.483Z,29.04
2018-06-29T14:01:41.552Z,29.10
2018-06-29T14:03:34.567Z,29.16
2018-06-29T14:04:34.637Z,29.19
2018-06-29T14:06:27.645Z,29.16
2018-06-29T14:07:27.714Z,29.16
2018-06-29T14:09:20.724Z,29.04
2018-06-29T14:10:20.786Z,29.10
2018-06-29T14:12:13.797Z,29.02
2018-06-29T14:13:13.863Z,28.96
2018-06-29T14:15:06.883Z,29.07
2018-06-29T14:16:06.947Z,28.97
2018-06-29T14:17:59.976Z,29.05
2018-06-29T14:19:00.029Z,29.08
2018-06-29T14:20:53.543Z,29.08
2018-06-29T14:21:53.610Z,28.98
2018-06-29T14:23:46.617Z,29.12
2018-06-29T14:24:46.689Z,29.02
2018-06-29T14:26:39.703Z,29.07
2018-06-29T14:27:39.764Z,29.13
2018-06-29T14:29:32.773Z,29.14
2018-06-29T14:30:32.840Z,29.12
2018-06-29T14:32:25.855Z,29.01
2018-06-29T14:33:25.916Z,29.01
2018-06-29T14:35:18.921Z,28.94
2018-06-29T14:36:18.994Z,28.91
2018-06-29T14:38:12.020Z,28.96
2018-06-29T14:39:12.220Z,29.04
2018-06-29T14:41:05.097Z,29.10
2018-06-29T14:42:05.163Z,29.16
2018-06-29T14:43:58.168Z,29.13
2018-06-29T14:44:58.238Z,29.04
2018-06-29T14:46:51.256Z,28.98
2018-06-29T14:47:51.322Z,29.02
2018-06-29T14:49:44.324Z,28.91
2018-06-29T14:50:44.394Z,29.01
2018-06-29T14:52:37.404Z,29.04
2018-06-29T14:53:37.470Z,29.01
2018-06-29T14:55:30.476Z,29.10
2018-06-29T14:56:30.543Z,29.14
2018-06-29T14:58:23.554Z,29.17
2018-06-29T14:59:23.617Z,29.20
2018-06-29T15:01:16.637Z,29.17
2018-06-29T15:02:16.703Z,29.26
2018-06-29T15:04:09.710Z,29.31
2018-06-29T15:05:09.781Z,29.24
2018-06-29T15:07:02.809Z,29.35
2018-06-29T15:08:02.863Z,29.20
2018-06-29T15:09:55.871Z,29.32
2018-06-29T15:10:55.943Z,29.16
2018-06-29T15:12:48.990Z,29.10
2018-06-29T15:13:49.215Z,29.10
2018-06-29T15:15:42.024Z,29.07
2018-06-29T15:16:42.092Z,29.08
2018-06-29T15:18:35.111Z,29.07
2018-06-29T15:19:35.170Z,28.98
2018-06-29T15:21:28.174Z,28.98
2018-06-29T15:22:28.240Z,29.08
2018-06-29T15:24:21.251Z,29.08
2018-06-29T15:25:21.378Z,29.02
2018-06-29T15:27:14.325Z,29.01
2018-06-29T15:28:14.393Z,29.04
2018-06-29T15:30:07.400Z,29.08
2018-06-29T15:31:07.500Z,29.01
2018-06-29T15:33:00.477Z,29.08
2018-06-29T15:34:00.544Z,29.01
2018-06-29T15:35:53.551Z,28.91
2018-06-29T15:36:53.619Z,28.85
2018-06-29T15:38:46.632Z,28.88
2018-06-29T15:39:46.736Z,28.81
2018-06-29T15:41:39.701Z,28.86
2018-06-29T15:42:39.769Z,28.91
2018-06-29T15:44:32.782Z,29.04
2018-06-29T15:45:32.847Z,29.08
2018-06-29T15:47:25.860Z,29.07
2018-06-29T15:48:25.922Z,29.08
2018-06-29T15:50:18.933Z,29.12
2018-06-29T15:51:18.997Z,29.07
2018-06-29T15:53:12.020Z,29.02
2018-06-29T15:54:12.079Z,28.94
2018-06-29T15:56:05.088Z,28.93
2018-06-29T15:57:05.153Z,28.88
2018-06-29T15:58:58.179Z,28.81
2018-06-29T15:59:58.235Z,28.74
2018-06-29T16:01:51.242Z,28.84
2018-06-29T16:02:51.311Z,28.86
2018-06-29T16:04:44.324Z,28.81
2018-06-29T16:05:44.388Z,28.82
2018-06-29T16:07:37.401Z,28.79
2018-06-29T16:08:37.463Z,28.85
2018-06-29T16:10:30.478Z,28.72
2018-06-29T16:11:30.548Z,28.69
2018-06-29T16:13:23.567Z,28.79
2018-06-29T16:14:23.636Z,28.72
2018-06-29T16:16:16.637Z,28.82
2018-06-29T16:17:16.708Z,28.82
2018-06-29T16:19:09.722Z,28.79
2018-06-29T16:20:09.793Z,28.85
2018-06-29T16:22:02.796Z,28.72
2018-06-29T16:23:02.876Z,28.72
2018-06-29T16:24:55.877Z,28.69
2018-06-29T16:25:55.942Z,28.74
2018-06-29T16:27:48.950Z,28.66
2018-06-29T16:28:49.018Z,28.74
2018-06-29T16:30:42.032Z,28.78
2018-06-29T16:31:42.093Z,28.74
2018-06-29T16:33:35.110Z,28.75
2018-06-29T16:34:35.168Z,28.85
2018-06-29T16:36:28.175Z,28.81
2018-06-29T16:37:28.261Z,28.78
2018-06-29T16:39:21.255Z,28.84
2018-06-29T16:40:21.318Z,28.74
2018-06-29T16:42:14.337Z,28.84
2018-06-29T16:43:14.401Z,28.84
2018-06-29T16:45:07.409Z,28.84
2018-06-29T16:46:07.475Z,28.81
2018-06-29T16:48:00.479Z,28.76
2018-06-29T16:49:00.550Z,28.81
2018-06-29T16:50:53.567Z,28.75
2018-06-29T16:51:53.634Z,28.70
2018-06-29T16:53:46.642Z,28.59
2018-06-29T16:54:46.741Z,28.59
2018-06-29T16:56:39.721Z,28.60
2018-06-29T16:57:39.787Z,28.52
2018-06-29T16:59:32.804Z,28.62
2018-06-29T17:00:32.869Z,28.54
2018-06-29T17:02:26.382Z,28.63
2018-06-29T17:03:26.451Z,28.54
2018-06-29T17:05:20.980Z,28.51
2018-06-29T17:06:21.045Z,28.47
2018-06-29T17:08:14.051Z,28.42
2018-06-29T17:09:14.117Z,28.42
2018-06-29T17:11:07.130Z,28.44
2018-06-29T17:12:07.198Z,28.51
2018-06-29T17:14:00.200Z,28.38
2018-06-29T17:15:00.274Z,28.33
2018-06-29T17:16:53.289Z,28.30
2018-06-29T17:17:53.356Z,28.26
2018-06-29T17:19:46.415Z,28.25
2018-06-29T17:20:46.599Z,28.22
2018-06-29T17:22:39.460Z,28.08
2018-06-29T17:23:39.615Z,28.14
2018-06-29T17:25:32.522Z,28.08
2018-06-29T17:26:32.573Z,28.04
2018-06-29T17:28:25.583Z,28.10
2018-06-29T17:29:25.690Z,28.02
2018-06-29T17:31:18.668Z,28.05
2018-06-29T17:32:18.720Z,27.98
2018-06-29T17:34:11.905Z,27.89
2018-06-29T17:35:11.795Z,27.87
2018-06-29T17:37:04.825Z,27.83
2018-06-29T17:38:04.880Z,27.78
2018-06-29T17:39:57.883Z,27.92
2018-06-29T17:40:57.953Z,27.80
2018-06-29T17:42:50.963Z,27.74
2018-06-29T17:43:51.026Z,27.75
2018-06-29T17:45:44.043Z,27.68
2018-06-29T17:46:44.104Z,27.67
2018-06-29T17:48:37.110Z,27.59
2018-06-29T17:49:37.178Z,27.54
2018-06-29T17:51:30.184Z,27.55
2018-06-29T17:52:30.251Z,27.37
2018-06-29T17:54:23.253Z,27.40
2018-06-29T17:55:23.531Z,27.39
2018-06-29T17:57:16.348Z,27.35
2018-06-29T17:58:16.400Z,27.33
2018-06-29T18:00:09.423Z,27.26
2018-06-29T18:01:09.471Z,27.29
2018-06-29T18:03:02.478Z,27.26
2018-06-29T18:04:03.504Z,27.20
2018-06-29T18:05:55.662Z,27.17
2018-06-29T18:06:55.641Z,27.21
2018-06-29T18:08:48.633Z,27.12
2018-06-29T18:09:48.711Z,27.05
2018-06-29T18:11:41.868Z,27.05
2018-06-29T18:12:41.930Z,26.99
2018-06-29T18:14:35.313Z,26.92
2018-06-29T18:15:35.375Z,26.90
2018-06-29T18:17:28.364Z,26.88
2018-06-29T18:18:28.429Z,26.85
2018-06-29T18:20:21.435Z,26.77
2018-06-29T18:21:21.502Z,26.75
2018-06-29T18:23:14.514Z,26.71
2018-06-29T18:24:14.576Z,26.73
2018-06-29T18:26:07.588Z,26.53
2018-06-29T18:27:07.659Z,26.53
2018-06-29T18:29:00.666Z,26.45
2018-06-29T18:30:00.730Z,26.47
2018-06-29T18:31:53.738Z,26.51
2018-06-29T18:32:53.803Z,26.41
2018-06-29T18:34:46.807Z,26.41
2018-06-29T18:35:46.879Z,26.40
2018-06-29T18:37:39.885Z,26.22
2018-06-29T18:38:39.947Z,26.21
2018-06-29T18:40:32.951Z,26.23
2018-06-29T18:41:33.023Z,26.21
2018-06-29T18:43:26.035Z,26.19
2018-06-29T18:44:26.094Z,26.06
2018-06-29T18:46:19.604Z,25.99
2018-06-29T18:47:19.676Z,25.96
2018-06-29T18:49:13.191Z,25.98
2018-06-29T18:50:13.253Z,25.91
2018-06-29T18:52:06.255Z,25.81
2018-06-29T18:53:06.324Z,25.72
2018-06-29T18:54:59.333Z,25.72
2018-06-29T18:55:59.402Z,25.78
2018-06-29T18:57:52.414Z,25.65
2018-06-29T18:58:52.530Z,25.62
2018-06-29T19:00:45.469Z,25.53
2018-06-29T19:01:45.543Z,25.54
2018-06-29T19:03:38.545Z,25.46
2018-06-29T19:04:38.608Z,25.50
2018-06-29T19:06:31.688Z,25.44
2018-06-29T19:07:31.757Z,25.41
2018-06-29T19:09:25.331Z,25.38
2018-06-29T19:10:25.338Z,25.28
2018-06-29T19:12:18.342Z,25.21
2018-06-29T19:13:18.414Z,25.29
2018-06-29T19:15:11.418Z,25.17
2018-06-29T19:16:11.484Z,25.13
2018-06-29T19:18:04.492Z,25.10
2018-06-29T19:19:04.559Z,25.07
2018-06-29T19:20:57.568Z,25.06
2018-06-29T19:21:57.630Z,24.93
2018-06-29T19:23:50.643Z,24.93
2018-06-29T19:24:50.698Z,24.95
2018-06-29T19:26:43.706Z,24.85
2018-06-29T19:27:43.771Z,24.89
2018-06-29T19:29:36.780Z,24.77
2018-06-29T19:30:36.870Z,24.76
2018-06-29T19:32:29.844Z,24.84
2018-06-29T19:33:29.914Z,24.84
2018-06-29T19:35:22.919Z,24.77
2018-06-29T19:36:22.983Z,24.77
2018-06-29T19:38:15.982Z,24.68
2018-06-29T19:39:16.049Z,24.68
2018-06-29T19:41:09.059Z,24.50
2018-06-29T19:42:09.120Z,24.63
2018-06-29T19:44:02.122Z,24.42
2018-06-29T19:45:02.189Z,24.51
2018-06-29T19:46:55.199Z,24.42
2018-06-29T19:47:55.260Z,24.42
2018-06-29T19:49:48.265Z,24.36
2018-06-29T19:50:48.330Z,24.33
2018-06-29T19:52:41.330Z,24.26
2018-06-29T19:53:41.398Z,24.24
2018-06-29T19:55:34.406Z,24.18
2018-06-29T19:56:34.469Z,24.11
2018-06-29T19:58:27.467Z,23.98
2018-06-29T19:59:27.535Z,23.95
2018-06-29T20:01:20.543Z,23.95
2018-06-29T20:02:20.605Z,23.98
2018-06-29T20:04:13.603Z,23.88
2018-06-29T20:05:13.745Z,23.86
2018-06-29T20:07:06.680Z,23.91
2018-06-29T20:08:06.739Z,23.71
2018-06-29T20:09:59.775Z,23.84
2018-06-29T20:10:59.839Z,23.73
2018-06-29T20:12:52.844Z,23.66
2018-06-29T20:13:52.907Z,23.73
2018-06-29T20:15:45.915Z,23.59
2018-06-29T20:16:45.975Z,23.58
2018-06-29T20:18:38.972Z,23.50
2018-06-29T20:19:39.042Z,23.44
2018-06-29T20:21:32.046Z,23.46
2018-06-29T20:22:32.110Z,23.44
2018-06-29T20:24:25.109Z,23.24
2018-06-29T20:25:25.176Z,23.31
2018-06-29T20:27:18.184Z,23.31
2018-06-29T20:28:18.244Z,23.25
2018-06-29T20:30:11.248Z,23.17
2018-06-29T20:31:11.339Z,23.17
2018-06-29T20:33:04.331Z,23.05
2018-06-29T20:34:04.382Z,23.08
2018-06-29T20:35:57.386Z,22.98
2018-06-29T20:36:57.448Z,22.98
2018-06-29T20:38:50.639Z,22.98
2018-06-29T20:39:50.516Z,22.91
2018-06-29T20:41:43.531Z,22.87
2018-06-29T20:42:43.591Z,22.83
2018-06-29T20:44:36.588Z,22.91
2018-06-29T20:45:36.666Z,22.76
2018-06-29T20:47:29.668Z,22.78
2018-06-29T20:48:29.763Z,22.69
2018-06-29T20:50:22.719Z,22.75
2018-06-29T20:51:22.789Z,22.69
2018-06-29T20:53:15.802Z,22.65
2018-06-29T20:54:15.880Z,22.57
2018-06-29T20:56:08.862Z,22.57
2018-06-29T20:57:08.931Z,22.48
2018-06-29T20:59:01.935Z,22.51
2018-06-29T21:00:01.999Z,22.43
2018-06-29T21:01:55.005Z,22.48
2018-06-29T21:02:55.068Z,22.39
2018-06-29T21:04:48.120Z,22.26
2018-06-29T21:05:48.131Z,22.26
2018-06-29T21:07:41.138Z,22.26
2018-06-29T21:08:41.198Z,22.18
2018-06-29T21:10:34.198Z,22.11
2018-06-29T21:11:34.266Z,22.11
2018-06-29T21:13:27.271Z,22.13
2018-06-29T21:14:27.332Z,22.08
2018-06-29T21:16:20.327Z,21.99
2018-06-29T21:17:20.396Z,21.92
2018-06-29T21:19:13.402Z,21.96
2018-06-29T21:20:13.462Z,21.95
2018-06-29T21:22:06.466Z,21.88
2018-06-29T21:23:06.525Z,21.70
2018-06-29T21:24:59.521Z,21.77
2018-06-29T21:25:59.594Z,21.77
2018-06-29T21:27:52.593Z,21.72